METAR Data
IDs: Format: Raw Decoded Include TAF

Data at: 0628 UTC 23 Feb 2019

PAFM 230556Z AUTO 13016G24KT 1SM -SN BR OVC014 M09/M11 A3020 RMK AO2 PK WND 12026/0506 SLP241 P0000 60000 T10941106 11083 21100 58008 FZRANO
PAFM 230551Z AUTO 13017G24KT 1SM -SN BR OVC014 M09/M11 A3020 RMK AO2 PK WND 12026/0506 P0000 FZRANO
PAFM 230405Z AUTO 13014G21KT 2SM -SN BR OVC022 M09/M11 A3022 RMK AO2 VIS 1 3/4V3 P0000 FZRANO
PAFM 230356Z AUTO 12014G21KT 3SM -SN BR OVC022 M09/M11 A3022 RMK AO2 SLP248 P0000 T10941111 FZRANO
PAFM 230320Z AUTO 12010G18KT 1 3/4SM -SN BR BKN024 OVC030 M10/M11 A3022 RMK AO2 VIS 1 1/4V2 P0000 FZRANO
PAFM 230315Z AUTO 12012G18KT 2SM -SN BR SCT024 OVC030 M10/M11 A3022 RMK AO2 P0000 FZRANO
PAFM 230256Z AUTO 12013G18KT 3SM -SN BR OVC030 M09/M11 A3022 RMK AO2 SLP250 P0000 60000 T10941111 56010 FZRANO
PAFM 230242Z AUTO 11010G19KT 3SM -SN BR OVC030 M10/M11 A3023 RMK AO2 P0000 FZRANO
PAFM 230217Z AUTO 12013G22KT 2 1/2SM -SN BR OVC030 M10/M12 A3023 RMK AO2 VIS 2V4 P0000 FZRANO
PAFM 230156Z AUTO 11008G18KT 3SM -SN BR OVC028 M09/M11 A3023 RMK AO2 SNB16 SLP251 P0000 T10941111 FZRANO
PAFM 230130Z AUTO 11014G19KT 8SM -SN OVC028 M09/M11 A3024 RMK AO2 SNB16 P0000 FZRANO
PAFM 230056Z AUTO 11008G15KT 10SM OVC034 M08/M11 A3024 RMK AO2 SNE48 SLP256 P0000 T10831111 FZRANO
PAFM 222356Z AUTO 10009G16KT 9SM -SN OVC032 M08/M11 A3025 RMK AO2 SLP259 P0000 60000 T10831111 11083 21111 58006 FZRANO
PAFM 222349Z AUTO 12008G16KT 9SM -SN FEW025 OVC032 M08/M11 A3026 RMK AO2 P0000 FZRANO
PAFM 222317Z AUTO 10009G16KT 3SM -SN OVC028 M09/M12 A3026 RMK AO2 P0000 FZRANO
PAFM 222256Z AUTO 12009KT 2 1/2SM -SN OVC034 M09/M12 A3027 RMK AO2 SNE05B33 SLP266 P0000 T10891117 FZRANO
PAFM 222204Z AUTO 11011G16KT 9SM -SN SCT016 BKN039 OVC046 M08/M11 A3027 RMK AO2 P0000 FZRANO
PAFM 222122Z AUTO 11009G16KT 10SM BKN016 OVC050 M08/M12 A3027 RMK AO2 FZRANO
PAFM 222056Z AUTO 10012G18KT 10SM OVC050 M09/M12 A3028 RMK AO2 SLP267 60000 T10891117 53009 FZRANO
PAFM 221956Z AUTO 08007KT 050V110 10SM FEW048 BKN070 M09/M13 A3026 RMK AO2 SLP262 T10941133 FZRANO
PAFM 221856Z AUTO VRB05KT 10SM OVC044 M11/M14 A3026 RMK AO2 SNB11E37 SLP262 P0000 T11061139 FZRANO
PAFM 221820Z AUTO 06003KT 9SM -SN SCT029 OVC044 M11/M14 A3025 RMK AO2 SNB11 P0000 FZRANO
PAFM 221756Z AUTO 04007KT 10SM SCT022 OVC029 M11/M14 A3025 RMK AO2 SNE45 SLP258 P0000 60000 T11111139 11106 21128 55002 FZRANO
PAFM 221656Z AUTO 05006KT 9SM -SN OVC022 M11/M13 A3024 RMK AO2 SLP257 P0000 T11061133 FZRANO
PAFM 221556Z AUTO 11004KT 6SM -SN BR OVC015 M12/M14 A3026 RMK AO2 SLP262 P0000 T11171139 FZRANO
PAFM 221541Z AUTO 12008G15KT 3SM -SN OVC017 M12/M14 A3026 RMK AO2 P0000 FZRANO
PAFM 221526Z AUTO 12006KT 2 1/2SM -SN BKN018 OVC027 M12/M15 A3026 RMK AO2 VIS 1 3/4V4 P0000 FZRANO
PAFM 221456Z AUTO VRB06KT 9SM -SN BKN027 OVC032 M12/M16 A3026 RMK AO2 SNB42 SLP261 P0000 60000 T11171156 53007 FZRANO
PAFM 221356Z AUTO 08005KT 9SM BKN027 OVC033 M12/M16 A3023 RMK AO2 SNE56 SLP253 P0000 T11171161 FZRANO
PAFM 221352Z AUTO 09004KT 9SM -SN BKN027 OVC033 M12/M16 A3024 RMK AO2 P0000 FZRANO
PAFM 221256Z AUTO 03007KT 9SM -SN BKN031 OVC039 M12/M17 A3023 RMK AO2 SNB18 SLP253 P0000 T11221167 FZRANO
PAFM 221156Z AUTO 04007KT 10SM OVC031 M12/M17 A3023 RMK AO2 SLP253 T11221172 11122 21150 51009 FZRANO
PAFM 221056Z AUTO 02007KT 10SM OVC035 M13/M18 A3023 RMK AO2 SLP252 T11281178 FZRANO
PAFM 220956Z AUTO 04007KT 10SM OVC035 M13/M18 A3022 RMK AO2 SLP247 T11331178 FZRANO
PAFM 220856Z AUTO 03008KT 10SM OVC037 M13/M18 A3020 RMK AO2 SLP243 T11331178 51015 FZRANO
PAFM 220756Z AUTO 03007KT 10SM OVC049 M12/M18 A3020 RMK AO2 SLP241 T11221178 411001172 FZRANO
PAFM 220656Z AUTO 03006KT 10SM CLR M14/M19 A3018 RMK AO2 SLP236 T11391189 FZRANO
PAFM 220556Z AUTO 02007KT 10SM CLR M15/M19 A3016 RMK AO2 SLP229 T11501189 11100 21150 51011 FZRANO
PAFM 220456Z AUTO 01006KT 10SM CLR M14/M18 A3015 RMK AO2 SLP224 T11391178 FZRANO
PAFM 220356Z AUTO 01007KT 10SM CLR M13/M18 A3014 RMK AO2 SLP221 T11331183 FZRANO
PAFM 220156Z AUTO 02005KT 10SM CLR M10/M17 A3013 RMK AO2 SLP216 T11001167 FZRANO
PAFM 220056Z AUTO 05005KT 10SM CLR M11/M16 A3012 RMK AO2 SLP215 T11061161 FZRANO
PAFM 212356Z AUTO 03006KT 10SM CLR M12/M17 A3011 RMK AO2 SLP212 T11171172 11106 21167 51005 FZRANO
PAFM 212256Z AUTO 04006KT 10SM FEW001 M11/M17 A3011 RMK AO2 SLP211 T11061167 FZRANO
PAFM 212156Z AUTO 02008KT 10SM CLR M12/M17 A3010 RMK AO2 SLP207 T11221167 FZRANO
PAFM 212139Z AUTO 03007KT 10SM FEW001 M12/M17 A3010 RMK AO2 FZRANO
PAFM 212056Z AUTO 01008KT 10SM CLR M12/M18 A3009 RMK AO2 SLP203 T11221183 53014 FZRANO
PAFM 212027Z AUTO 36008KT 10SM FEW001 M13/M19 A3008 RMK AO2 FZRANO
PAFM 211956Z AUTO 01008KT 10SM CLR M14/M19 A3007 RMK AO2 SLP197 T11441194 FZRANO
PAFM 211856Z AUTO 02008KT 10SM CLR M16/M20 A3005 RMK AO2 SLP192 T11611200 FZRANO